sensor_id;sensor_type;location;lat;lon;timestamp;P1;durP1;ratioP1;P2;durP2;ratioP2
48627;SDS011;34424;52.234;6.500;2022-07-09T00:00:44;21.05;;;11.95;;
48627;SDS011;34424;52.234;6.500;2022-07-09T00:05:48;17.00;;;11.60;;
48627;SDS011;34424;52.234;6.500;2022-07-09T00:10:50;14.20;;;10.70;;
48627;SDS011;34424;52.234;6.500;2022-07-09T00:15:52;16.03;;;10.53;;
48627;SDS011;34424;52.234;6.500;2022-07-09T00:20:56;17.43;;;11.57;;
48627;SDS011;34424;52.234;6.500;2022-07-09T00:25:59;19.20;;;11.32;;
48627;SDS011;34424;52.234;6.500;2022-07-09T00:31:01;18.87;;;11.30;;
48627;SDS011;34424;52.234;6.500;2022-07-09T00:36:05;19.20;;;11.93;;
48627;SDS011;34424;52.234;6.500;2022-07-09T00:41:08;18.85;;;12.00;;
48627;SDS011;34424;52.234;6.500;2022-07-09T00:46:12;21.13;;;12.57;;
48627;SDS011;34424;52.234;6.500;2022-07-09T00:51:16;17.33;;;11.98;;
48627;SDS011;34424;52.234;6.500;2022-07-09T00:56:19;15.27;;;11.27;;
48627;SDS011;34424;52.234;6.500;2022-07-09T01:01:21;30.83;;;12.83;;
48627;SDS011;34424;52.234;6.500;2022-07-09T01:06:26;15.15;;;10.90;;
48627;SDS011;34424;52.234;6.500;2022-07-09T01:11:29;15.02;;;9.65;;
48627;SDS011;34424;52.234;6.500;2022-07-09T01:16:32;16.55;;;10.68;;
48627;SDS011;34424;52.234;6.500;2022-07-09T01:21:35;15.57;;;10.32;;
48627;SDS011;34424;52.234;6.500;2022-07-09T01:26:38;17.15;;;10.43;;
48627;SDS011;34424;52.234;6.500;2022-07-09T01:31:40;14.33;;;10.60;;
48627;SDS011;34424;52.234;6.500;2022-07-09T01:36:44;16.43;;;11.27;;
48627;SDS011;34424;52.234;6.500;2022-07-09T01:41:47;14.90;;;10.90;;
48627;SDS011;34424;52.234;6.500;2022-07-09T01:46:50;18.73;;;11.83;;
48627;SDS011;34424;52.234;6.500;2022-07-09T01:51:54;13.85;;;9.90;;
48627;SDS011;34424;52.234;6.500;2022-07-09T01:56:56;17.20;;;11.95;;
48627;SDS011;34424;52.234;6.500;2022-07-09T02:01:59;15.27;;;11.90;;
48627;SDS011;34424;52.234;6.500;2022-07-09T02:07:04;16.48;;;12.07;;
48627;SDS011;34424;52.234;6.500;2022-07-09T02:12:07;14.50;;;11.00;;
48627;SDS011;34424;52.234;6.500;2022-07-09T02:17:10;16.88;;;12.20;;
48627;SDS011;34424;52.234;6.500;2022-07-09T02:22:13;15.07;;;11.83;;
48627;SDS011;34424;52.234;6.500;2022-07-09T02:27:16;14.02;;;10.43;;
48627;SDS011;34424;52.234;6.500;2022-07-09T02:32:19;13.90;;;10.13;;
48627;SDS011;34424;52.234;6.500;2022-07-09T02:37:23;14.20;;;10.57;;
48627;SDS011;34424;52.234;6.500;2022-07-09T02:42:25;15.23;;;11.07;;
48627;SDS011;34424;52.234;6.500;2022-07-09T02:47:28;20.30;;;13.50;;
48627;SDS011;34424;52.234;6.500;2022-07-09T02:52:31;22.37;;;14.33;;
48627;SDS011;34424;52.234;6.500;2022-07-09T02:57:34;19.77;;;14.07;;
48627;SDS011;34424;52.234;6.500;2022-07-09T03:02:36;23.20;;;15.80;;
48627;SDS011;34424;52.234;6.500;2022-07-09T03:07:40;21.60;;;14.37;;
48627;SDS011;34424;52.234;6.500;2022-07-09T03:12:43;23.00;;;15.63;;
48627;SDS011;34424;52.234;6.500;2022-07-09T03:17:46;21.03;;;14.80;;
48627;SDS011;34424;52.234;6.500;2022-07-09T03:22:50;24.60;;;13.43;;
48627;SDS011;34424;52.234;6.500;2022-07-09T03:27:52;21.00;;;13.70;;
48627;SDS011;34424;52.234;6.500;2022-07-09T03:32:56;21.75;;;12.30;;
48627;SDS011;34424;52.234;6.500;2022-07-09T03:37:59;21.47;;;13.33;;
48627;SDS011;34424;52.234;6.500;2022-07-09T03:43:02;18.48;;;12.75;;
48627;SDS011;34424;52.234;6.500;2022-07-09T03:48:05;20.40;;;12.77;;
48627;SDS011;34424;52.234;6.500;2022-07-09T03:53:09;21.77;;;13.55;;
48627;SDS011;34424;52.234;6.500;2022-07-09T03:58:11;20.20;;;13.00;;
48627;SDS011;34424;52.234;6.500;2022-07-09T04:03:14;15.82;;;11.32;;
48627;SDS011;34424;52.234;6.500;2022-07-09T04:08:18;16.37;;;11.00;;
48627;SDS011;34424;52.234;6.500;2022-07-09T04:13:20;16.35;;;11.63;;
48627;SDS011;34424;52.234;6.500;2022-07-09T04:18:22;18.70;;;11.03;;
48627;SDS011;34424;52.234;6.500;2022-07-09T04:23:26;16.13;;;10.67;;
48627;SDS011;34424;52.234;6.500;2022-07-09T04:28:29;15.32;;;10.35;;
48627;SDS011;34424;52.234;6.500;2022-07-09T04:33:32;15.55;;;10.93;;
48627;SDS011;34424;52.234;6.500;2022-07-09T04:38:36;13.93;;;10.13;;
48627;SDS011;34424;52.234;6.500;2022-07-09T04:43:39;14.52;;;9.05;;
48627;SDS011;34424;52.234;6.500;2022-07-09T04:48:41;12.17;;;8.77;;
48627;SDS011;34424;52.234;6.500;2022-07-09T04:53:45;13.43;;;8.63;;
48627;SDS011;34424;52.234;6.500;2022-07-09T04:58:48;10.52;;;7.43;;
48627;SDS011;34424;52.234;6.500;2022-07-09T05:03:53;11.02;;;8.02;;
48627;SDS011;34424;52.234;6.500;2022-07-09T05:08:58;11.20;;;8.43;;
48627;SDS011;34424;52.234;6.500;2022-07-09T05:14:01;11.27;;;7.88;;
48627;SDS011;34424;52.234;6.500;2022-07-09T05:19:03;13.00;;;8.38;;
48627;SDS011;34424;52.234;6.500;2022-07-09T05:24:07;12.93;;;8.02;;
48627;SDS011;34424;52.234;6.500;2022-07-09T05:29:10;10.88;;;8.30;;
48627;SDS011;34424;52.234;6.500;2022-07-09T05:34:13;13.45;;;7.88;;
48627;SDS011;34424;52.234;6.500;2022-07-09T05:39:17;9.15;;;7.60;;
48627;SDS011;34424;52.234;6.500;2022-07-09T05:44:19;9.85;;;7.55;;
48627;SDS011;34424;52.234;6.500;2022-07-09T05:49:25;11.30;;;7.97;;
48627;SDS011;34424;52.234;6.500;2022-07-09T05:54:29;13.48;;;8.38;;
48627;SDS011;34424;52.234;6.500;2022-07-09T05:59:31;9.77;;;6.20;;
48627;SDS011;34424;52.234;6.500;2022-07-09T06:04:34;11.23;;;6.45;;
48627;SDS011;34424;52.234;6.500;2022-07-09T06:14:40;8.63;;;7.13;;
48627;SDS011;34424;52.234;6.500;2022-07-09T06:19:43;6.90;;;5.40;;
48627;SDS011;34424;52.234;6.500;2022-07-09T06:29:49;11.70;;;7.00;;
48627;SDS011;34424;52.234;6.500;2022-07-09T06:34:52;11.65;;;7.22;;
48627;SDS011;34424;52.234;6.500;2022-07-09T06:39:54;10.52;;;7.22;;
48627;SDS011;34424;52.234;6.500;2022-07-09T06:45:00;7.82;;;6.13;;
48627;SDS011;34424;52.234;6.500;2022-07-09T06:50:03;7.35;;;5.65;;
48627;SDS011;34424;52.234;6.500;2022-07-09T06:55:05;6.68;;;5.35;;
48627;SDS011;34424;52.234;6.500;2022-07-09T07:00:10;7.55;;;4.97;;
48627;SDS011;34424;52.234;6.500;2022-07-09T07:05:12;6.85;;;4.82;;
48627;SDS011;34424;52.234;6.500;2022-07-09T07:10:20;6.65;;;4.57;;
48627;SDS011;34424;52.234;6.500;2022-07-09T07:15:25;3.80;;;3.40;;
48627;SDS011;34424;52.234;6.500;2022-07-09T07:20:27;3.88;;;3.22;;
48627;SDS011;34424;52.234;6.500;2022-07-09T07:25:30;3.67;;;2.80;;
48627;SDS011;34424;52.234;6.500;2022-07-09T07:30:34;3.65;;;2.92;;
48627;SDS011;34424;52.234;6.500;2022-07-09T07:35:37;3.63;;;2.08;;
48627;SDS011;34424;52.234;6.500;2022-07-09T07:40:40;2.72;;;1.90;;
48627;SDS011;34424;52.234;6.500;2022-07-09T07:45:44;3.22;;;1.98;;
48627;SDS011;34424;52.234;6.500;2022-07-09T07:50:47;2.75;;;1.77;;
48627;SDS011;34424;52.234;6.500;2022-07-09T07:55:50;2.10;;;1.88;;
48627;SDS011;34424;52.234;6.500;2022-07-09T08:00:53;6.05;;;2.17;;
48627;SDS011;34424;52.234;6.500;2022-07-09T08:05:56;2.00;;;1.75;;
48627;SDS011;34424;52.234;6.500;2022-07-09T08:10:58;1.77;;;1.67;;
48627;SDS011;34424;52.234;6.500;2022-07-09T08:16:03;2.47;;;1.58;;
48627;SDS011;34424;52.234;6.500;2022-07-09T08:21:06;2.30;;;2.10;;
48627;SDS011;34424;52.234;6.500;2022-07-09T08:26:09;4.45;;;2.10;;
48627;SDS011;34424;52.234;6.500;2022-07-09T08:31:12;2.63;;;1.60;;
48627;SDS011;34424;52.234;6.500;2022-07-09T08:36:15;3.78;;;1.80;;
48627;SDS011;34424;52.234;6.500;2022-07-09T08:41:18;5.35;;;2.00;;
48627;SDS011;34424;52.234;6.500;2022-07-09T08:46:28;3.40;;;2.38;;
48627;SDS011;34424;52.234;6.500;2022-07-09T08:51:30;2.70;;;2.45;;
48627;SDS011;34424;52.234;6.500;2022-07-09T08:56:33;4.15;;;2.10;;
48627;SDS011;34424;52.234;6.500;2022-07-09T09:01:38;6.22;;;2.30;;
48627;SDS011;34424;52.234;6.500;2022-07-09T09:06:40;4.60;;;2.28;;
48627;SDS011;34424;52.234;6.500;2022-07-09T09:11:46;4.95;;;2.63;;
48627;SDS011;34424;52.234;6.500;2022-07-09T09:16:50;5.30;;;2.80;;
48627;SDS011;34424;52.234;6.500;2022-07-09T09:21:53;2.67;;;2.30;;
48627;SDS011;34424;52.234;6.500;2022-07-09T09:26:57;5.22;;;2.63;;
48627;SDS011;34424;52.234;6.500;2022-07-09T09:32:09;3.70;;;2.15;;
48627;SDS011;34424;52.234;6.500;2022-07-09T09:37:12;3.30;;;2.23;;
48627;SDS011;34424;52.234;6.500;2022-07-09T09:47:20;2.72;;;1.88;;
48627;SDS011;34424;52.234;6.500;2022-07-09T09:52:25;3.15;;;1.95;;
48627;SDS011;34424;52.234;6.500;2022-07-09T09:57:27;3.47;;;1.95;;
48627;SDS011;34424;52.234;6.500;2022-07-09T10:07:34;4.15;;;2.50;;
48627;SDS011;34424;52.234;6.500;2022-07-09T10:12:36;3.75;;;2.33;;
48627;SDS011;34424;52.234;6.500;2022-07-09T10:17:39;5.78;;;2.63;;
48627;SDS011;34424;52.234;6.500;2022-07-09T10:22:45;2.95;;;2.30;;
48627;SDS011;34424;52.234;6.500;2022-07-09T10:27:48;3.22;;;2.00;;
48627;SDS011;34424;52.234;6.500;2022-07-09T10:33:04;3.42;;;1.60;;
48627;SDS011;34424;52.234;6.500;2022-07-09T10:38:08;2.38;;;1.38;;
48627;SDS011;34424;52.234;6.500;2022-07-09T10:43:11;2.55;;;1.52;;
48627;SDS011;34424;52.234;6.500;2022-07-09T10:48:14;2.88;;;1.40;;
48627;SDS011;34424;52.234;6.500;2022-07-09T10:53:19;1.85;;;1.30;;
48627;SDS011;34424;52.234;6.500;2022-07-09T10:58:23;2.25;;;1.40;;
48627;SDS011;34424;52.234;6.500;2022-07-09T11:03:31;4.53;;;1.20;;
48627;SDS011;34424;52.234;6.500;2022-07-09T11:08:35;2.20;;;0.85;;
48627;SDS011;34424;52.234;6.500;2022-07-09T11:13:38;3.67;;;1.05;;
48627;SDS011;34424;52.234;6.500;2022-07-09T11:18:41;1.20;;;1.10;;
48627;SDS011;34424;52.234;6.500;2022-07-09T11:23:48;4.35;;;1.25;;
48627;SDS011;34424;52.234;6.500;2022-07-09T11:28:51;3.35;;;1.10;;
48627;SDS011;34424;52.234;6.500;2022-07-09T11:33:54;2.38;;;0.75;;
48627;SDS011;34424;52.234;6.500;2022-07-09T11:39:22;0.98;;;0.85;;
48627;SDS011;34424;52.234;6.500;2022-07-09T11:44:26;1.60;;;0.80;;
48627;SDS011;34424;52.234;6.500;2022-07-09T11:49:32;3.97;;;1.13;;
48627;SDS011;34424;52.234;6.500;2022-07-09T11:54:36;2.45;;;1.00;;
48627;SDS011;34424;52.234;6.500;2022-07-09T11:59:38;0.90;;;0.70;;
48627;SDS011;34424;52.234;6.500;2022-07-09T12:04:43;3.20;;;0.95;;
48627;SDS011;34424;52.234;6.500;2022-07-09T12:09:57;1.17;;;0.80;;
48627;SDS011;34424;52.234;6.500;2022-07-09T12:15:01;3.55;;;0.98;;
48627;SDS011;34424;52.234;6.500;2022-07-09T12:20:09;3.63;;;1.15;;
48627;SDS011;34424;52.234;6.500;2022-07-09T12:25:13;2.75;;;0.95;;
48627;SDS011;34424;52.234;6.500;2022-07-09T12:30:15;2.92;;;1.17;;
48627;SDS011;34424;52.234;6.500;2022-07-09T12:35:18;2.40;;;1.08;;
48627;SDS011;34424;52.234;6.500;2022-07-09T12:40:23;2.38;;;0.85;;
48627;SDS011;34424;52.234;6.500;2022-07-09T12:45:26;1.45;;;0.80;;
48627;SDS011;34424;52.234;6.500;2022-07-09T12:50:29;1.52;;;0.82;;
48627;SDS011;34424;52.234;6.500;2022-07-09T12:55:34;1.00;;;0.52;;
48627;SDS011;34424;52.234;6.500;2022-07-09T13:00:57;3.45;;;1.08;;
48627;SDS011;34424;52.234;6.500;2022-07-09T13:06:00;1.77;;;0.90;;
48627;SDS011;34424;52.234;6.500;2022-07-09T13:11:03;2.83;;;0.75;;
48627;SDS011;34424;52.234;6.500;2022-07-09T13:16:06;1.10;;;0.60;;
48627;SDS011;34424;52.234;6.500;2022-07-09T13:21:09;1.42;;;0.63;;
48627;SDS011;34424;52.234;6.500;2022-07-09T13:26:13;0.65;;;0.60;;
48627;SDS011;34424;52.234;6.500;2022-07-09T13:31:15;2.03;;;0.85;;
48627;SDS011;34424;52.234;6.500;2022-07-09T13:36:19;4.90;;;0.80;;
48627;SDS011;34424;52.234;6.500;2022-07-09T13:41:22;1.65;;;0.80;;
48627;SDS011;34424;52.234;6.500;2022-07-09T13:46:25;1.58;;;0.90;;
48627;SDS011;34424;52.234;6.500;2022-07-09T13:51:27;2.55;;;1.33;;
48627;SDS011;34424;52.234;6.500;2022-07-09T13:56:31;2.42;;;1.20;;
48627;SDS011;34424;52.234;6.500;2022-07-09T14:01:34;4.07;;;1.50;;
48627;SDS011;34424;52.234;6.500;2022-07-09T14:06:36;3.95;;;1.85;;
48627;SDS011;34424;52.234;6.500;2022-07-09T14:11:48;5.38;;;1.48;;
48627;SDS011;34424;52.234;6.500;2022-07-09T14:16:51;2.13;;;1.30;;
48627;SDS011;34424;52.234;6.500;2022-07-09T14:21:53;2.85;;;1.48;;
48627;SDS011;34424;52.234;6.500;2022-07-09T14:26:57;5.65;;;1.88;;
48627;SDS011;34424;52.234;6.500;2022-07-09T14:32:00;4.35;;;1.60;;
48627;SDS011;34424;52.234;6.500;2022-07-09T14:37:02;3.58;;;1.50;;
48627;SDS011;34424;52.234;6.500;2022-07-09T14:42:07;3.25;;;1.40;;
48627;SDS011;34424;52.234;6.500;2022-07-09T14:47:09;3.90;;;1.67;;
48627;SDS011;34424;52.234;6.500;2022-07-09T14:52:18;4.00;;;1.38;;
48627;SDS011;34424;52.234;6.500;2022-07-09T15:02:26;2.58;;;1.10;;
48627;SDS011;34424;52.234;6.500;2022-07-09T15:07:28;3.45;;;1.75;;
48627;SDS011;34424;52.234;6.500;2022-07-09T15:12:31;2.90;;;1.35;;
48627;SDS011;34424;52.234;6.500;2022-07-09T15:17:35;2.50;;;1.17;;
48627;SDS011;34424;52.234;6.500;2022-07-09T15:22:43;1.83;;;0.90;;
48627;SDS011;34424;52.234;6.500;2022-07-09T15:27:46;1.95;;;1.40;;
48627;SDS011;34424;52.234;6.500;2022-07-09T15:32:50;3.25;;;1.15;;
48627;SDS011;34424;52.234;6.500;2022-07-09T15:37:53;3.40;;;1.75;;
48627;SDS011;34424;52.234;6.500;2022-07-09T15:42:55;2.00;;;1.10;;
48627;SDS011;34424;52.234;6.500;2022-07-09T15:47:59;1.73;;;0.88;;
48627;SDS011;34424;52.234;6.500;2022-07-09T15:53:02;2.88;;;1.20;;
48627;SDS011;34424;52.234;6.500;2022-07-09T15:58:04;1.80;;;0.80;;
48627;SDS011;34424;52.234;6.500;2022-07-09T16:03:08;3.53;;;1.48;;
48627;SDS011;34424;52.234;6.500;2022-07-09T16:08:11;5.10;;;1.00;;
48627;SDS011;34424;52.234;6.500;2022-07-09T16:13:14;2.78;;;1.13;;
48627;SDS011;34424;52.234;6.500;2022-07-09T16:18:18;2.92;;;1.27;;
48627;SDS011;34424;52.234;6.500;2022-07-09T16:23:21;2.03;;;1.00;;
48627;SDS011;34424;52.234;6.500;2022-07-09T16:33:27;1.95;;;1.40;;
48627;SDS011;34424;52.234;6.500;2022-07-09T16:38:29;1.70;;;1.20;;
48627;SDS011;34424;52.234;6.500;2022-07-09T16:48:36;2.20;;;1.25;;
48627;SDS011;34424;52.234;6.500;2022-07-09T16:53:40;5.85;;;2.33;;
48627;SDS011;34424;52.234;6.500;2022-07-09T16:58:42;2.80;;;1.35;;
48627;SDS011;34424;52.234;6.500;2022-07-09T17:03:46;3.38;;;1.40;;
48627;SDS011;34424;52.234;6.500;2022-07-09T17:08:50;7.10;;;1.50;;
48627;SDS011;34424;52.234;6.500;2022-07-09T17:13:53;6.65;;;1.73;;
48627;SDS011;34424;52.234;6.500;2022-07-09T17:18:56;3.22;;;1.77;;
48627;SDS011;34424;52.234;6.500;2022-07-09T17:23:59;6.38;;;1.77;;
48627;SDS011;34424;52.234;6.500;2022-07-09T17:29:02;5.22;;;1.90;;
48627;SDS011;34424;52.234;6.500;2022-07-09T17:34:05;4.28;;;1.98;;
48627;SDS011;34424;52.234;6.500;2022-07-09T17:39:09;2.67;;;1.50;;
48627;SDS011;34424;52.234;6.500;2022-07-09T17:44:13;4.18;;;1.70;;
48627;SDS011;34424;52.234;6.500;2022-07-09T17:54:19;8.80;;;1.73;;
48627;SDS011;34424;52.234;6.500;2022-07-09T17:59:21;5.30;;;1.70;;
48627;SDS011;34424;52.234;6.500;2022-07-09T18:04:24;3.17;;;0.95;;
48627;SDS011;34424;52.234;6.500;2022-07-09T18:09:28;1.88;;;1.10;;
48627;SDS011;34424;52.234;6.500;2022-07-09T18:14:30;7.70;;;1.40;;
48627;SDS011;34424;52.234;6.500;2022-07-09T18:19:32;3.75;;;1.52;;
48627;SDS011;34424;52.234;6.500;2022-07-09T18:24:36;3.67;;;1.10;;
48627;SDS011;34424;52.234;6.500;2022-07-09T18:29:39;2.90;;;1.08;;
48627;SDS011;34424;52.234;6.500;2022-07-09T18:34:41;4.03;;;1.10;;
48627;SDS011;34424;52.234;6.500;2022-07-09T18:39:46;2.25;;;1.05;;
48627;SDS011;34424;52.234;6.500;2022-07-09T18:44:48;3.67;;;1.05;;
48627;SDS011;34424;52.234;6.500;2022-07-09T18:49:51;2.42;;;1.20;;
48627;SDS011;34424;52.234;6.500;2022-07-09T18:54:55;3.90;;;1.40;;
48627;SDS011;34424;52.234;6.500;2022-07-09T18:59:57;7.32;;;1.33;;
48627;SDS011;34424;52.234;6.500;2022-07-09T19:05:01;3.22;;;1.27;;
48627;SDS011;34424;52.234;6.500;2022-07-09T19:10:06;2.45;;;1.23;;
48627;SDS011;34424;52.234;6.500;2022-07-09T19:15:09;4.30;;;1.30;;
48627;SDS011;34424;52.234;6.500;2022-07-09T19:20:11;2.25;;;1.33;;
48627;SDS011;34424;52.234;6.500;2022-07-09T19:25:18;3.50;;;1.10;;
48627;SDS011;34424;52.234;6.500;2022-07-09T19:30:20;2.75;;;1.10;;
48627;SDS011;34424;52.234;6.500;2022-07-09T19:35:43;2.70;;;1.05;;
48627;SDS011;34424;52.234;6.500;2022-07-09T19:40:47;5.83;;;1.30;;
48627;SDS011;34424;52.234;6.500;2022-07-09T19:45:49;2.47;;;1.27;;
48627;SDS011;34424;52.234;6.500;2022-07-09T19:55:57;4.40;;;1.25;;
48627;SDS011;34424;52.234;6.500;2022-07-09T20:01:00;2.97;;;1.60;;
48627;SDS011;34424;52.234;6.500;2022-07-09T20:06:02;2.60;;;1.38;;
48627;SDS011;34424;52.234;6.500;2022-07-09T20:11:06;3.75;;;1.20;;
48627;SDS011;34424;52.234;6.500;2022-07-09T20:16:08;3.30;;;1.10;;
48627;SDS011;34424;52.234;6.500;2022-07-09T20:21:11;2.95;;;1.05;;
48627;SDS011;34424;52.234;6.500;2022-07-09T20:26:21;5.20;;;1.25;;
48627;SDS011;34424;52.234;6.500;2022-07-09T20:31:24;5.13;;;1.40;;
48627;SDS011;34424;52.234;6.500;2022-07-09T20:36:26;3.95;;;1.15;;
48627;SDS011;34424;52.234;6.500;2022-07-09T20:41:30;2.80;;;1.10;;
48627;SDS011;34424;52.234;6.500;2022-07-09T20:46:33;5.05;;;1.40;;
48627;SDS011;34424;52.234;6.500;2022-07-09T20:51:35;5.60;;;1.50;;
48627;SDS011;34424;52.234;6.500;2022-07-09T20:56:39;2.57;;;1.30;;
48627;SDS011;34424;52.234;6.500;2022-07-09T21:01:41;4.00;;;1.25;;
48627;SDS011;34424;52.234;6.500;2022-07-09T21:06:44;4.00;;;1.70;;
48627;SDS011;34424;52.234;6.500;2022-07-09T21:11:48;4.23;;;1.10;;
48627;SDS011;34424;52.234;6.500;2022-07-09T21:16:50;6.80;;;1.60;;
48627;SDS011;34424;52.234;6.500;2022-07-09T21:22:10;6.65;;;2.35;;
48627;SDS011;34424;52.234;6.500;2022-07-09T21:27:14;2.50;;;1.45;;
48627;SDS011;34424;52.234;6.500;2022-07-09T21:32:17;4.05;;;1.70;;
48627;SDS011;34424;52.234;6.500;2022-07-09T21:37:19;5.67;;;1.50;;
48627;SDS011;34424;52.234;6.500;2022-07-09T21:42:23;6.90;;;1.80;;
48627;SDS011;34424;52.234;6.500;2022-07-09T21:47:26;5.15;;;1.45;;
48627;SDS011;34424;52.234;6.500;2022-07-09T21:52:29;6.73;;;2.00;;
48627;SDS011;34424;52.234;6.500;2022-07-09T21:57:33;6.20;;;2.10;;
48627;SDS011;34424;52.234;6.500;2022-07-09T22:02:38;4.65;;;1.90;;
48627;SDS011;34424;52.234;6.500;2022-07-09T22:07:40;4.80;;;1.50;;
48627;SDS011;34424;52.234;6.500;2022-07-09T22:12:44;5.80;;;1.30;;
48627;SDS011;34424;52.234;6.500;2022-07-09T22:17:47;2.88;;;1.60;;
48627;SDS011;34424;52.234;6.500;2022-07-09T22:22:49;4.93;;;1.70;;
48627;SDS011;34424;52.234;6.500;2022-07-09T22:27:53;2.67;;;1.50;;
48627;SDS011;34424;52.234;6.500;2022-07-09T22:32:55;4.70;;;1.60;;
48627;SDS011;34424;52.234;6.500;2022-07-09T22:37:58;5.90;;;1.60;;
48627;SDS011;34424;52.234;6.500;2022-07-09T22:43:02;4.53;;;1.90;;
48627;SDS011;34424;52.234;6.500;2022-07-09T22:48:04;2.05;;;1.27;;
48627;SDS011;34424;52.234;6.500;2022-07-09T22:53:07;7.93;;;1.75;;
48627;SDS011;34424;52.234;6.500;2022-07-09T22:58:11;2.90;;;1.80;;
48627;SDS011;34424;52.234;6.500;2022-07-09T23:03:13;3.97;;;1.52;;
48627;SDS011;34424;52.234;6.500;2022-07-09T23:08:16;3.33;;;1.40;;
48627;SDS011;34424;52.234;6.500;2022-07-09T23:13:38;5.63;;;1.77;;
48627;SDS011;34424;52.234;6.500;2022-07-09T23:18:40;4.47;;;1.70;;
48627;SDS011;34424;52.234;6.500;2022-07-09T23:23:43;3.70;;;1.45;;
48627;SDS011;34424;52.234;6.500;2022-07-09T23:28:47;8.00;;;1.97;;
48627;SDS011;34424;52.234;6.500;2022-07-09T23:33:50;3.95;;;1.45;;
48627;SDS011;34424;52.234;6.500;2022-07-09T23:38:53;3.97;;;1.35;;
48627;SDS011;34424;52.234;6.500;2022-07-09T23:43:56;4.53;;;1.70;;
48627;SDS011;34424;52.234;6.500;2022-07-09T23:48:59;6.38;;;1.42;;
48627;SDS011;34424;52.234;6.500;2022-07-09T23:54:01;3.40;;;1.50;;
48627;SDS011;34424;52.234;6.500;2022-07-09T23:59:05;2.23;;;1.60;;
